createdAt,value
2019-06-27T00:00:17.599Z,21.70
2019-06-27T00:03:24.566Z,21.50
2019-06-27T00:06:31.560Z,21.30
2019-06-27T00:09:38.664Z,21.20
2019-06-27T00:12:46.012Z,21.20
2019-06-27T00:15:52.994Z,21.10
2019-06-27T00:19:00.008Z,21.00
2019-06-27T00:22:06.962Z,20.80
2019-06-27T00:25:13.946Z,20.70
2019-06-27T00:28:20.938Z,20.60
2019-06-27T00:31:27.912Z,20.50
2019-06-27T00:34:34.905Z,20.30
2019-06-27T00:37:41.905Z,20.10
2019-06-27T00:40:48.898Z,19.90
2019-06-27T00:43:55.886Z,19.70
2019-06-27T00:47:02.932Z,19.70
2019-06-27T00:50:10.189Z,19.80
2019-06-27T00:53:17.186Z,19.80
2019-06-27T00:56:24.170Z,19.90
2019-06-27T00:59:31.119Z,19.90
2019-06-27T01:02:38.121Z,19.80
2019-06-27T01:05:45.131Z,19.80
2019-06-27T01:08:52.096Z,19.90
2019-06-27T01:11:59.100Z,20.00
2019-06-27T01:15:06.368Z,19.90
2019-06-27T01:18:13.336Z,19.90
2019-06-27T01:21:20.315Z,19.80
2019-06-27T01:24:27.281Z,19.70
2019-06-27T01:27:34.244Z,19.60
2019-06-27T01:30:41.218Z,19.50
2019-06-27T01:33:48.190Z,19.40
2019-06-27T01:36:55.167Z,19.30
2019-06-27T01:40:02.150Z,19.20
2019-06-27T01:43:09.162Z,19.10
2019-06-27T01:46:16.117Z,19.20
2019-06-27T01:49:23.093Z,19.10
2019-06-27T01:52:30.291Z,19.10
2019-06-27T01:55:37.254Z,19.10
2019-06-27T01:58:44.214Z,19.20
2019-06-27T02:01:51.190Z,19.20
2019-06-27T02:04:58.159Z,19.10
2019-06-27T02:08:05.243Z,19.00
2019-06-27T02:11:12.199Z,18.90
2019-06-27T02:14:19.214Z,18.80
2019-06-27T02:17:26.190Z,18.80
2019-06-27T02:20:33.172Z,18.70
2019-06-27T02:23:40.176Z,18.60
2019-06-27T02:26:47.159Z,18.60
2019-06-27T02:29:54.119Z,18.60
2019-06-27T02:33:01.132Z,18.70
2019-06-27T02:36:08.090Z,18.70
2019-06-27T02:39:15.084Z,18.80
2019-06-27T02:42:22.070Z,18.80
2019-06-27T02:45:31.502Z,18.80
2019-06-27T02:48:38.617Z,18.80
2019-06-27T02:51:45.627Z,18.60
2019-06-27T02:54:52.623Z,18.50
2019-06-27T02:57:59.639Z,18.40
2019-06-27T03:01:06.633Z,18.30
2019-06-27T03:04:13.601Z,18.20
2019-06-27T03:07:20.591Z,18.20
2019-06-27T03:10:27.959Z,17.90
2019-06-27T03:13:34.920Z,17.70
2019-06-27T03:16:42.006Z,17.60
2019-06-27T03:19:48.999Z,17.50
2019-06-27T03:22:55.980Z,17.30
2019-06-27T03:26:02.962Z,17.40
2019-06-27T03:29:09.956Z,17.40
2019-06-27T03:32:16.933Z,17.50
2019-06-27T03:35:23.943Z,17.50
2019-06-27T03:38:31.158Z,17.50
2019-06-27T03:41:38.098Z,17.50
2019-06-27T03:44:45.121Z,17.60
2019-06-27T03:47:52.069Z,17.60
2019-06-27T03:50:59.050Z,17.70
2019-06-27T03:54:06.075Z,17.70
2019-06-27T03:57:13.040Z,17.70
2019-06-27T04:00:26.898Z,17.80
2019-06-27T04:03:33.875Z,17.80
2019-06-27T04:06:40.848Z,17.80
2019-06-27T04:09:47.917Z,17.80
2019-06-27T04:12:54.926Z,17.80
2019-06-27T04:16:01.981Z,17.80
2019-06-27T04:19:09.175Z,17.90
2019-06-27T04:22:17.447Z,17.90
2019-06-27T04:25:24.800Z,17.90
2019-06-27T04:28:31.749Z,18.00
2019-06-27T04:31:38.786Z,18.00
2019-06-27T04:34:45.839Z,17.90
2019-06-27T04:37:54.145Z,17.90
2019-06-27T04:41:01.146Z,18.00
2019-06-27T04:44:08.177Z,18.20
2019-06-27T04:47:15.215Z,18.20
2019-06-27T04:50:22.221Z,18.30
2019-06-27T04:53:29.254Z,18.40
2019-06-27T04:56:36.273Z,18.30
2019-06-27T04:59:53.099Z,18.30
2019-06-27T05:02:51.870Z,18.20
2019-06-27T05:05:58.829Z,18.20
2019-06-27T05:09:05.932Z,18.00
2019-06-27T05:12:12.889Z,18.00
2019-06-27T05:15:19.868Z,18.00
2019-06-27T05:18:29.704Z,18.00
2019-06-27T05:21:36.700Z,17.90
2019-06-27T05:24:43.812Z,18.00
2019-06-27T05:27:50.823Z,18.10
2019-06-27T05:30:57.829Z,18.10
2019-06-27T05:34:04.867Z,18.30
2019-06-27T05:37:11.829Z,18.30
2019-06-27T05:40:19.532Z,18.40
2019-06-27T05:43:26.493Z,18.50
2019-06-27T05:46:33.569Z,18.20
2019-06-27T05:49:40.554Z,17.80
2019-06-27T05:52:47.561Z,17.80
2019-06-27T05:55:54.592Z,18.10
2019-06-27T05:59:01.615Z,18.50
2019-06-27T06:02:08.621Z,18.40
2019-06-27T06:05:15.576Z,18.70
2019-06-27T06:08:22.563Z,19.80
2019-06-27T06:11:29.569Z,20.50
2019-06-27T06:14:36.579Z,21.30
2019-06-27T06:17:43.574Z,21.60
2019-06-27T06:20:50.548Z,22.70
2019-06-27T06:24:00.955Z,23.50
2019-06-27T06:27:08.086Z,25.20
2019-06-27T06:30:15.140Z,25.90
2019-06-27T06:33:22.110Z,25.10
2019-06-27T06:36:29.101Z,25.20
2019-06-27T06:39:36.109Z,25.10
2019-06-27T06:42:43.173Z,25.30
2019-06-27T06:45:50.195Z,25.50
2019-06-27T06:48:57.194Z,25.60
2019-06-27T06:52:04.190Z,25.40
2019-06-27T06:55:11.297Z,25.30
2019-06-27T06:58:18.309Z,25.40
2019-06-27T07:01:28.254Z,25.60
2019-06-27T07:04:35.228Z,25.80
2019-06-27T07:07:42.227Z,26.20
2019-06-27T07:10:49.203Z,26.70
2019-06-27T07:13:56.191Z,27.30
2019-06-27T07:17:03.225Z,27.00
2019-06-27T07:20:10.626Z,27.50
2019-06-27T07:23:17.609Z,27.60
2019-06-27T07:26:24.598Z,25.40
2019-06-27T07:29:31.568Z,24.40
2019-06-27T07:32:38.530Z,25.60
2019-06-27T07:35:45.534Z,27.20
2019-06-27T07:38:52.537Z,28.50
2019-06-27T07:41:59.511Z,26.50
2019-06-27T07:45:06.774Z,25.80
2019-06-27T07:48:13.734Z,26.10
2019-06-27T07:51:20.834Z,28.30
2019-06-27T07:54:27.834Z,28.50
2019-06-27T07:57:34.810Z,29.20
2019-06-27T08:00:41.844Z,28.70
2019-06-27T08:03:48.874Z,30.00
2019-06-27T08:06:55.843Z,30.00
2019-06-27T08:10:02.844Z,29.80
2019-06-27T08:13:09.832Z,29.90
2019-06-27T08:16:16.823Z,30.10
2019-06-27T08:19:23.757Z,30.00
2019-06-27T08:22:30.753Z,30.10
2019-06-27T08:25:37.775Z,30.10
2019-06-27T08:28:44.766Z,30.10
2019-06-27T08:31:52.244Z,31.80
2019-06-27T08:34:59.216Z,31.20
2019-06-27T08:38:06.222Z,30.30
2019-06-27T08:41:14.199Z,30.10
2019-06-27T08:44:21.221Z,31.30
2019-06-27T08:47:28.225Z,33.80
2019-06-27T08:50:35.212Z,32.90
2019-06-27T08:53:42.273Z,34.20
2019-06-27T08:56:49.258Z,33.50
2019-06-27T08:59:56.256Z,34.10
2019-06-27T09:03:03.271Z,34.00
2019-06-27T09:06:10.276Z,35.10
2019-06-27T09:09:17.288Z,34.50
2019-06-27T09:12:24.258Z,34.30
2019-06-27T09:15:31.260Z,35.10
2019-06-27T09:18:38.246Z,36.10
2019-06-27T09:21:45.217Z,35.60
2019-06-27T09:24:52.215Z,34.80
2019-06-27T09:27:59.223Z,35.50
2019-06-27T09:31:06.202Z,35.90
2019-06-27T09:34:13.207Z,35.90
2019-06-27T09:37:20.245Z,33.50
2019-06-27T09:40:27.367Z,35.10
2019-06-27T09:43:34.338Z,36.90
2019-06-27T09:46:41.329Z,37.50
2019-06-27T09:49:48.322Z,37.70
2019-06-27T09:52:55.338Z,38.20
2019-06-27T09:56:02.448Z,37.30
2019-06-27T09:59:09.475Z,36.30
2019-06-27T10:02:16.526Z,34.90
2019-06-27T10:05:23.545Z,35.00
2019-06-27T10:08:30.601Z,35.90
2019-06-27T10:11:40.457Z,35.30
2019-06-27T10:14:47.490Z,35.30
2019-06-27T10:17:54.443Z,35.00
2019-06-27T10:21:01.473Z,33.50
2019-06-27T10:24:08.435Z,32.40
2019-06-27T10:27:15.444Z,32.40
2019-06-27T10:30:24.032Z,31.30
2019-06-27T10:33:49.095Z,32.10
2019-06-27T10:36:56.150Z,32.00
2019-06-27T10:40:03.164Z,32.30
2019-06-27T10:43:10.133Z,33.40
2019-06-27T10:46:17.102Z,33.00
2019-06-27T10:49:24.113Z,32.60
2019-06-27T10:52:31.217Z,31.30
2019-06-27T10:55:38.242Z,31.20
2019-06-27T10:58:45.261Z,33.90
2019-06-27T11:01:52.235Z,33.70
2019-06-27T11:04:59.194Z,34.40
2019-06-27T11:08:06.497Z,34.70
2019-06-27T11:11:13.467Z,35.10
2019-06-27T11:14:20.478Z,35.10
2019-06-27T11:17:27.740Z,33.40
2019-06-27T11:20:34.709Z,33.50
2019-06-27T11:23:41.713Z,32.90
2019-06-27T11:26:49.552Z,31.80
2019-06-27T11:29:56.573Z,31.70
2019-06-27T11:33:03.570Z,29.20
2019-06-27T11:36:10.534Z,29.10
2019-06-27T11:39:17.514Z,29.40
2019-06-27T11:42:24.497Z,29.20
2019-06-27T11:45:31.698Z,28.80
2019-06-27T11:48:38.820Z,28.10
2019-06-27T11:51:45.784Z,26.30
2019-06-27T11:54:52.830Z,25.70
2019-06-27T11:57:59.789Z,25.40
2019-06-27T12:01:06.776Z,25.70
2019-06-27T12:04:13.717Z,25.90
2019-06-27T12:07:20.744Z,25.70
2019-06-27T12:10:28.006Z,25.80
2019-06-27T12:13:35.042Z,26.10
2019-06-27T12:16:42.069Z,26.00
2019-06-27T12:19:49.154Z,26.10
2019-06-27T12:22:56.310Z,26.20
2019-06-27T12:26:03.256Z,26.30
2019-06-27T12:29:10.225Z,26.30
2019-06-27T12:32:17.244Z,26.30
2019-06-27T12:35:24.222Z,26.50
2019-06-27T12:38:31.211Z,26.50
2019-06-27T12:41:38.186Z,26.40
2019-06-27T12:44:45.194Z,26.30
2019-06-27T12:47:52.220Z,26.30
2019-06-27T12:50:59.237Z,26.20
2019-06-27T12:54:06.273Z,25.80
2019-06-27T12:57:13.252Z,25.90
2019-06-27T13:00:20.333Z,26.00
2019-06-27T13:03:27.364Z,26.20
2019-06-27T13:06:34.360Z,26.30
2019-06-27T13:09:41.434Z,26.40
2019-06-27T13:12:48.462Z,26.20
2019-06-27T13:15:55.455Z,26.20
2019-06-27T13:19:02.536Z,26.30
2019-06-27T13:22:09.537Z,26.40
2019-06-27T13:25:16.558Z,26.50
2019-06-27T13:28:23.559Z,26.30
2019-06-27T13:31:30.573Z,26.30
2019-06-27T13:34:40.894Z,26.30
2019-06-27T13:37:46.125Z,26.40
2019-06-27T13:40:53.096Z,26.50
2019-06-27T13:44:00.138Z,26.20
2019-06-27T13:47:07.115Z,26.20
2019-06-27T13:50:14.276Z,25.70
2019-06-27T13:53:21.353Z,25.50
2019-06-27T13:56:28.469Z,25.80
2019-06-27T13:59:35.444Z,26.10
2019-06-27T14:02:42.455Z,26.30
2019-06-27T14:05:49.421Z,26.50
2019-06-27T14:08:56.392Z,26.40
2019-06-27T14:12:03.433Z,26.30
2019-06-27T14:15:10.663Z,26.20
2019-06-27T14:18:19.257Z,26.00
2019-06-27T14:21:26.735Z,25.90
2019-06-27T14:24:33.797Z,26.20
2019-06-27T14:27:40.832Z,26.30
2019-06-27T14:30:47.847Z,26.40
2019-06-27T14:33:54.794Z,26.20
2019-06-27T14:37:01.816Z,26.00
2019-06-27T14:40:09.778Z,25.80
2019-06-27T14:43:16.777Z,26.00
2019-06-27T14:46:23.810Z,26.20
2019-06-27T14:49:30.826Z,26.20
2019-06-27T14:52:37.887Z,26.20
2019-06-27T14:55:44.891Z,26.30
2019-06-27T14:58:51.890Z,26.30
2019-06-27T15:01:58.949Z,26.40
2019-06-27T15:05:07.185Z,26.40
2019-06-27T15:08:14.160Z,26.20
2019-06-27T15:11:21.188Z,26.20
2019-06-27T15:14:28.145Z,26.00
2019-06-27T15:17:35.196Z,25.80
2019-06-27T15:20:42.189Z,25.50
2019-06-27T15:23:49.182Z,25.50
2019-06-27T15:26:56.186Z,25.40
2019-06-27T15:30:03.221Z,25.60
2019-06-27T15:33:10.206Z,25.70
2019-06-27T15:36:17.216Z,25.80
2019-06-27T15:39:24.201Z,25.70
2019-06-27T15:42:31.262Z,25.40
2019-06-27T15:45:38.246Z,25.40
2019-06-27T15:48:45.255Z,25.70
2019-06-27T15:51:52.271Z,25.80
2019-06-27T15:54:59.253Z,25.70
2019-06-27T15:58:06.300Z,25.70
2019-06-27T16:01:13.314Z,25.80
2019-06-27T16:04:30.682Z,25.80
2019-06-27T16:07:28.958Z,25.70
2019-06-27T16:10:35.990Z,25.70
2019-06-27T16:13:43.027Z,25.80
2019-06-27T16:16:49.952Z,25.80
2019-06-27T16:19:56.967Z,25.80
2019-06-27T16:23:03.975Z,25.80
2019-06-27T16:26:11.008Z,25.80
2019-06-27T16:29:17.992Z,25.80
2019-06-27T16:32:24.995Z,25.70
2019-06-27T16:35:31.991Z,25.60
2019-06-27T16:38:39.018Z,25.70
2019-06-27T16:41:45.991Z,25.60
2019-06-27T16:44:52.971Z,25.40
2019-06-27T16:48:00.075Z,25.10
2019-06-27T16:51:08.354Z,24.90
2019-06-27T16:54:15.400Z,24.80
2019-06-27T16:57:22.408Z,24.80
2019-06-27T17:00:29.416Z,24.90
2019-06-27T17:03:36.431Z,25.10
2019-06-27T17:06:43.436Z,25.20
2019-06-27T17:09:50.448Z,25.10
2019-06-27T17:12:57.497Z,24.80
2019-06-27T17:16:04.506Z,24.60
2019-06-27T17:19:11.538Z,24.70
2019-06-27T17:22:18.504Z,24.70
2019-06-27T17:25:25.507Z,24.80
2019-06-27T17:28:35.150Z,24.60
2019-06-27T17:31:41.235Z,24.50
2019-06-27T17:34:48.292Z,24.60
2019-06-27T17:37:55.298Z,24.70
2019-06-27T17:41:02.285Z,24.60
2019-06-27T17:44:09.280Z,24.60
2019-06-27T17:47:16.267Z,24.50
2019-06-27T17:50:23.225Z,24.40
2019-06-27T17:53:30.232Z,24.20
2019-06-27T17:56:37.278Z,24.20
2019-06-27T17:59:44.385Z,24.20
2019-06-27T18:02:51.482Z,24.30
2019-06-27T18:05:58.508Z,24.30
2019-06-27T18:09:05.743Z,24.20
2019-06-27T18:12:12.711Z,24.10
2019-06-27T18:15:19.804Z,24.00
2019-06-27T18:18:26.923Z,23.90
2019-06-27T18:21:33.962Z,23.90
2019-06-27T18:24:41.805Z,23.90
2019-06-27T18:27:48.903Z,23.90
2019-06-27T18:30:55.959Z,23.90
2019-06-27T18:34:03.006Z,23.90
2019-06-27T18:37:10.032Z,23.80
2019-06-27T18:40:17.265Z,23.60
2019-06-27T18:43:24.448Z,23.60
2019-06-27T18:46:31.417Z,23.60
2019-06-27T18:49:38.482Z,23.40
2019-06-27T18:52:45.512Z,23.30
2019-06-27T18:55:52.568Z,23.20
2019-06-27T18:58:59.638Z,23.10
2019-06-27T19:02:06.650Z,23.00
2019-06-27T19:05:13.629Z,22.80
2019-06-27T19:08:20.631Z,22.70
2019-06-27T19:11:27.748Z,22.60
2019-06-27T19:14:34.787Z,22.50
2019-06-27T19:17:41.798Z,22.40
2019-06-27T19:20:52.454Z,22.30
2019-06-27T19:24:27.307Z,22.10
2019-06-27T19:27:34.307Z,22.00
2019-06-27T19:30:41.414Z,22.00
2019-06-27T19:33:48.428Z,21.70
2019-06-27T19:36:55.450Z,21.40
2019-06-27T19:40:02.451Z,21.20
2019-06-27T19:43:09.440Z,21.00
2019-06-27T19:46:16.546Z,21.00
2019-06-27T19:49:23.547Z,20.90
2019-06-27T19:52:30.566Z,20.80
2019-06-27T19:55:37.873Z,20.70
2019-06-27T19:58:44.917Z,20.60
2019-06-27T20:01:51.950Z,20.60
2019-06-27T20:04:58.901Z,20.60
2019-06-27T20:08:18.291Z,20.80
2019-06-27T20:11:14.582Z,20.80
2019-06-27T20:14:21.542Z,20.80
2019-06-27T20:17:28.631Z,20.70
2019-06-27T20:20:35.639Z,20.50
2019-06-27T20:23:42.638Z,20.30
2019-06-27T20:26:49.593Z,20.10
2019-06-27T20:29:56.580Z,19.80
2019-06-27T20:33:03.595Z,19.50
2019-06-27T20:36:10.588Z,19.40
2019-06-27T20:39:17.630Z,19.30
2019-06-27T20:42:24.578Z,19.30
2019-06-27T20:45:31.528Z,19.30
2019-06-27T20:48:38.512Z,19.20
2019-06-27T20:51:45.479Z,19.20
2019-06-27T20:54:52.479Z,19.00
2019-06-27T20:57:59.446Z,19.00
2019-06-27T21:01:06.516Z,19.00
2019-06-27T21:04:13.514Z,18.90
2019-06-27T21:07:20.494Z,18.80
2019-06-27T21:10:27.503Z,18.80
2019-06-27T21:13:34.528Z,18.50
2019-06-27T21:16:41.462Z,18.40
2019-06-27T21:19:48.461Z,18.40
2019-06-27T21:22:55.478Z,18.30
2019-06-27T21:26:02.455Z,18.30
2019-06-27T21:29:09.471Z,18.20
2019-06-27T21:32:30.592Z,18.00
2019-06-27T21:35:25.058Z,17.80
2019-06-27T21:38:32.092Z,17.60
2019-06-27T21:41:39.108Z,17.60
2019-06-27T21:44:46.157Z,17.40
2019-06-27T21:47:53.175Z,17.40
2019-06-27T21:51:00.155Z,17.30
2019-06-27T21:54:07.317Z,17.30
2019-06-27T21:57:14.453Z,17.30
2019-06-27T22:00:22.517Z,17.30
2019-06-27T22:03:29.594Z,17.30
2019-06-27T22:06:36.618Z,17.40
2019-06-27T22:09:43.576Z,17.40
2019-06-27T22:12:50.608Z,17.40
2019-06-27T22:15:57.604Z,17.40
2019-06-27T22:19:05.016Z,17.50
2019-06-27T22:22:11.990Z,17.30
2019-06-27T22:25:19.078Z,17.40
2019-06-27T22:28:26.095Z,17.30
2019-06-27T22:31:33.148Z,17.30
2019-06-27T22:34:40.188Z,17.20
2019-06-27T22:38:04.806Z,17.20
2019-06-27T22:41:29.099Z,17.10
2019-06-27T22:44:53.682Z,16.90
2019-06-27T22:48:14.547Z,16.90
2019-06-27T22:51:49.431Z,16.90
2019-06-27T22:54:57.742Z,16.90
2019-06-27T22:58:04.948Z,16.80
2019-06-27T23:01:11.928Z,16.60
2019-06-27T23:04:18.878Z,16.50
2019-06-27T23:07:25.886Z,16.20
2019-06-27T23:10:32.870Z,16.10
2019-06-27T23:13:40.506Z,16.00
2019-06-27T23:16:47.526Z,16.00
2019-06-27T23:19:54.469Z,16.00
2019-06-27T23:23:01.450Z,15.80
2019-06-27T23:26:08.431Z,15.80
2019-06-27T23:29:15.461Z,15.80
2019-06-27T23:32:22.395Z,15.80
2019-06-27T23:35:29.382Z,15.70
2019-06-27T23:38:36.411Z,15.80
2019-06-27T23:41:43.419Z,15.70
2019-06-27T23:44:50.385Z,15.70
2019-06-27T23:47:57.374Z,15.50
2019-06-27T23:51:04.460Z,15.40
2019-06-27T23:54:11.460Z,15.30
2019-06-27T23:57:18.441Z,15.30
